createdAt,value
2016-03-07T08:49:45.482Z,-11.36
2016-03-07T08:49:58.967Z,-11.48
2016-03-07T08:50:14.205Z,-11.41
2016-03-07T08:50:27.971Z,-11.44
2016-03-07T08:50:41.736Z,-11.4
2016-03-07T08:50:55.549Z,-11.44
2016-03-07T08:51:12.285Z,-11.45
2016-03-07T08:51:26.144Z,-11.44
2016-03-07T08:51:39.785Z,-11.41
2016-03-07T08:51:53.519Z,-11.52
2016-03-07T08:52:07.223Z,-11.48
2016-03-07T08:52:20.944Z,-11.47
2016-03-07T08:52:37.851Z,-11.51
2016-03-07T08:52:51.741Z,-11.51
2016-03-07T08:53:05.491Z,-11.47
2016-03-07T08:53:19.337Z,-11.45
2016-03-07T08:53:33.024Z,-11.45
2016-03-07T08:53:46.634Z,-11.4
2016-03-07T08:54:00.368Z,-11.37
2016-03-07T08:54:14.512Z,-11.36
2016-03-07T08:54:28.340Z,-11.44
2016-03-07T08:54:42.168Z,-11.47
2016-03-07T08:54:56.043Z,-11.37
2016-03-07T08:55:09.687Z,-11.41
2016-03-07T08:55:26.249Z,-11.36
2016-03-07T08:55:39.749Z,-11.4
2016-03-07T08:55:53.468Z,-11.41
2016-03-07T08:56:07.593Z,-11.4
2016-03-07T08:56:21.673Z,-11.48
2016-03-07T08:56:34.564Z,-11.36
2016-03-07T08:56:51.251Z,-11.41
2016-03-07T08:57:05.251Z,-11.42
2016-03-07T08:57:19.395Z,-11.41
2016-03-07T08:57:33.035Z,-11.36
2016-03-07T08:57:46.973Z,-11.41
2016-03-07T08:58:00.629Z,-11.45
2016-03-07T08:58:17.242Z,-11.37
2016-03-07T08:58:31.007Z,-11.45
2016-03-07T08:58:45.085Z,-11.42
2016-03-07T08:58:58.851Z,-11.36
2016-03-07T08:59:13.573Z,-11.41
2016-03-07T08:59:27.385Z,-11.34
2016-03-07T08:59:41.073Z,-11.45
2016-03-07T08:59:54.901Z,-11.4
2016-03-07T09:00:12.168Z,-11.4
2016-03-07T09:00:25.965Z,-11.42
2016-03-07T09:00:39.668Z,-11.36
2016-03-07T09:00:53.356Z,-11.36
2016-03-07T09:01:07.059Z,-11.3
2016-03-07T09:01:21.171Z,-11.3
2016-03-07T09:01:34.890Z,-11.27
2016-03-07T09:01:48.609Z,-11.3
2016-03-07T09:02:02.437Z,-11.31
2016-03-07T09:02:16.189Z,-11.27
2016-03-07T09:02:29.845Z,-11.29
2016-03-07T09:02:43.611Z,-11.27
2016-03-07T09:02:57.377Z,-11.36
2016-03-07T09:03:11.193Z,-11.36
2016-03-07T09:03:25.021Z,-11.27
2016-03-07T09:03:39.474Z,-11.3
2016-03-07T09:03:53.537Z,-11.27
2016-03-07T09:04:07.318Z,-11.27
2016-03-07T09:04:21.742Z,-11.3
2016-03-07T09:04:35.461Z,-11.27
2016-03-07T09:04:49.164Z,-11.31
2016-03-07T09:05:03.289Z,-11.27
2016-03-07T09:05:17.057Z,-11.3
2016-03-07T09:05:30.948Z,-11.24
2016-03-07T09:05:44.589Z,-11.26
2016-03-07T09:05:58.401Z,-11.27
2016-03-07T09:06:12.107Z,-11.27
2016-03-07T09:06:25.951Z,-11.24
2016-03-07T09:06:39.732Z,-11.21
2016-03-07T09:06:53.342Z,-11.24
2016-03-07T09:07:07.123Z,-11.13
2016-03-07T09:07:21.062Z,-11.15
2016-03-07T09:07:35.078Z,-11.09
2016-03-07T09:07:48.766Z,-11.09
2016-03-07T09:08:02.422Z,-11.1
2016-03-07T09:08:16.503Z,-10.95
2016-03-07T09:08:30.456Z,-10.97
2016-03-07T09:08:44.472Z,-11.03
2016-03-07T09:08:58.409Z,-10.88
2016-03-07T09:09:12.161Z,-10.89
2016-03-07T09:09:25.677Z,-10.91
2016-03-07T09:09:39.396Z,-10.88
2016-03-07T09:09:53.333Z,-10.87
2016-03-07T09:10:07.036Z,-10.76
2016-03-07T09:10:20.617Z,-10.87
2016-03-07T09:10:34.570Z,-10.73
2016-03-07T09:10:48.274Z,-10.75
2016-03-07T09:11:16.042Z,-10.78
2016-03-07T09:11:29.745Z,-10.7
2016-03-07T09:11:43.511Z,-10.54
2016-03-07T09:11:57.152Z,-10.54
2016-03-07T09:12:14.139Z,-10.44
2016-03-07T09:12:27.795Z,-10.47
2016-03-07T09:12:41.608Z,-10.41
2016-03-07T09:12:55.264Z,-10.49
2016-03-07T09:13:09.266Z,-10.31
2016-03-07T09:13:25.922Z,-10.31
2016-03-07T09:13:39.782Z,-10.28
2016-03-07T09:13:53.469Z,-10.28
2016-03-07T09:14:07.828Z,-10.19
2016-03-07T09:14:21.566Z,-10.17
2016-03-07T09:14:35.253Z,-10.16
2016-03-07T09:14:49.285Z,-10.23
2016-03-07T09:15:03.316Z,-10.12
2016-03-07T09:15:17.178Z,-10.1
2016-03-07T09:15:45.006Z,-10.06
2016-03-07T09:15:58.709Z,-10.02
2016-03-07T09:16:12.602Z,-10.07
2016-03-07T09:16:26.821Z,-9.94
2016-03-07T09:16:40.821Z,-10.07
2016-03-07T09:16:55.008Z,-9.94
2016-03-07T09:17:08.902Z,-9.98
2016-03-07T09:17:22.918Z,-9.91
2016-03-07T09:17:36.668Z,-9.89
2016-03-07T09:17:50.324Z,-9.8
2016-03-07T09:18:03.918Z,-9.8
2016-03-07T09:18:17.655Z,-9.76
2016-03-07T09:18:31.311Z,-9.76
2016-03-07T09:18:48.014Z,-9.7
2016-03-07T09:19:02.014Z,-9.66
2016-03-07T09:19:15.674Z,-9.74
2016-03-07T09:19:29.455Z,-9.6
2016-03-07T09:19:43.111Z,-9.66
2016-03-07T09:19:56.861Z,-9.52
2016-03-07T09:20:10.441Z,-9.53
2016-03-07T09:20:27.754Z,-9.56
2016-03-07T09:20:41.676Z,-9.59
2016-03-07T09:20:55.457Z,-9.5
2016-03-07T09:21:12.085Z,-9.52
2016-03-07T09:21:25.835Z,-9.53
2016-03-07T09:21:42.694Z,-9.47
2016-03-07T09:21:56.647Z,-9.47
2016-03-07T09:22:10.416Z,-9.52
2016-03-07T09:22:24.432Z,-9.45
2016-03-07T09:22:38.197Z,-9.45
2016-03-07T09:22:52.338Z,-9.5
2016-03-07T09:23:06.432Z,-9.47
2016-03-07T09:23:22.981Z,-9.47
2016-03-07T09:23:36.669Z,-9.52
2016-03-07T09:23:50.435Z,-9.5
2016-03-07T09:24:04.138Z,-9.45
2016-03-07T09:24:17.998Z,-9.47
2016-03-07T09:24:31.607Z,-9.48
2016-03-07T09:24:45.748Z,-9.5
2016-03-07T09:24:59.686Z,-9.52
2016-03-07T09:25:16.626Z,-9.47
2016-03-07T09:25:30.626Z,-9.47
2016-03-07T09:25:44.220Z,-9.47
2016-03-07T09:25:58.079Z,-9.47
2016-03-07T09:26:11.738Z,-9.53
2016-03-07T09:26:25.488Z,-9.55
2016-03-07T09:26:39.285Z,-9.5
2016-03-07T09:26:56.145Z,-9.48
2016-03-07T09:27:23.913Z,-9.5
2016-03-07T09:27:37.851Z,-9.52
2016-03-07T09:27:51.663Z,-9.52
2016-03-07T09:28:05.445Z,-9.55
2016-03-07T09:28:18.384Z,-9.48
2016-03-07T09:28:32.056Z,-9.47
2016-03-07T09:28:46.087Z,-9.48
2016-03-07T09:28:59.618Z,-9.48
2016-03-07T09:29:13.840Z,-9.44
2016-03-07T09:29:27.590Z,-9.44
2016-03-07T09:29:41.418Z,-9.45
2016-03-07T09:29:58.231Z,-9.47
2016-03-07T09:30:11.874Z,-9.36
2016-03-07T09:30:28.718Z,-9.34
2016-03-07T09:30:42.499Z,-9.37
2016-03-07T09:30:56.187Z,-9.4
2016-03-07T09:31:09.909Z,-9.29
2016-03-07T09:31:23.752Z,-9.31
2016-03-07T09:31:37.737Z,-9.29
2016-03-07T09:31:51.424Z,-9.27
2016-03-07T09:32:05.393Z,-9.36
2016-03-07T09:32:19.661Z,-9.25
2016-03-07T09:32:47.536Z,-9.23
2016-03-07T09:33:01.192Z,-9.26
2016-03-07T09:33:15.086Z,-9.25
2016-03-07T09:33:28.773Z,-9.26
2016-03-07T09:33:45.398Z,-9.23
2016-03-07T09:33:59.414Z,-9.29
2016-03-07T09:34:13.214Z,-9.15
2016-03-07T09:34:26.932Z,-9.15
2016-03-07T09:34:40.698Z,-9.13
2016-03-07T09:34:54.354Z,-9.16
2016-03-07T09:35:10.842Z,-9.08
2016-03-07T09:35:24.717Z,-9.13
2016-03-07T09:35:38.420Z,-9.09
2016-03-07T09:35:51.951Z,-9.04
2016-03-07T09:36:05.935Z,-9.06
2016-03-07T09:36:19.719Z,-9.01
2016-03-07T09:36:36.359Z,-9.01
2016-03-07T09:36:49.984Z,-9.06
2016-03-07T09:37:03.672Z,-9.04
2016-03-07T09:37:17.314Z,-8.95
2016-03-07T09:37:30.955Z,-9.01
2016-03-07T09:37:47.580Z,-8.98
2016-03-07T09:38:01.283Z,-8.91
2016-03-07T09:38:17.942Z,-8.91
2016-03-07T09:38:37.599Z,-8.94
2016-03-07T09:38:51.442Z,-8.86
2016-03-07T09:39:08.114Z,-8.95
2016-03-07T09:39:24.820Z,-8.94
2016-03-07T09:39:38.211Z,-8.87
2016-03-07T09:39:51.836Z,-8.88
2016-03-07T09:40:05.773Z,-8.94
2016-03-07T09:40:19.433Z,-8.9
2016-03-07T09:40:33.058Z,-8.88
2016-03-07T09:40:49.667Z,-8.95
2016-03-07T09:41:03.183Z,-8.9
2016-03-07T09:41:16.951Z,-8.86
2016-03-07T09:41:30.951Z,-8.98
2016-03-07T09:41:44.592Z,-8.94
2016-03-07T09:41:58.623Z,-8.9
2016-03-07T09:42:12.517Z,-8.91
2016-03-07T09:42:26.673Z,-8.91
2016-03-07T09:42:40.407Z,-8.88
2016-03-07T09:42:57.157Z,-8.9
2016-03-07T09:43:10.988Z,-8.91
2016-03-07T09:43:24.816Z,-8.91
2016-03-07T09:43:38.613Z,-8.86
2016-03-07T09:43:52.331Z,-8.9
2016-03-07T09:44:06.034Z,-8.94
2016-03-07T09:44:19.741Z,-8.91
2016-03-07T09:44:33.756Z,-8.9
2016-03-07T09:44:47.381Z,-8.88
2016-03-07T09:45:04.147Z,-8.88
2016-03-07T09:45:17.103Z,-8.91
2016-03-07T09:45:30.900Z,-8.88
2016-03-07T09:45:44.431Z,-8.87
2016-03-07T09:45:58.072Z,-8.91
2016-03-07T09:46:26.355Z,-8.86
2016-03-07T09:46:40.074Z,-8.84
2016-03-07T09:46:52.996Z,-8.88
2016-03-07T09:47:06.839Z,-8.9
2016-03-07T09:47:20.905Z,-8.88
2016-03-07T09:47:35.405Z,-8.87
2016-03-07T09:47:49.436Z,-8.84
2016-03-07T09:48:03.108Z,-8.86
2016-03-07T09:48:16.954Z,-8.87
2016-03-07T09:48:30.172Z,-8.83
2016-03-07T09:48:43.688Z,-8.78
2016-03-07T09:48:57.454Z,-8.72
2016-03-07T09:49:14.285Z,-8.77
2016-03-07T09:49:28.519Z,-8.77
2016-03-07T09:49:42.160Z,-8.8
2016-03-07T09:49:55.910Z,-8.67
2016-03-07T09:50:09.787Z,-8.74
2016-03-07T09:50:26.365Z,-8.76
2016-03-07T09:50:39.349Z,-8.62
2016-03-07T09:50:53.146Z,-8.67
2016-03-07T09:51:07.287Z,-8.77
2016-03-07T09:51:20.993Z,-8.72
2016-03-07T09:51:34.743Z,-8.69
2016-03-07T09:51:48.274Z,-8.69
2016-03-07T09:52:01.962Z,-8.62
2016-03-07T09:52:15.715Z,-8.6
2016-03-07T09:52:29.340Z,-8.65
2016-03-07T09:52:43.246Z,-8.62
2016-03-07T09:52:57.137Z,-8.56
2016-03-07T09:53:11.233Z,-8.54
2016-03-07T09:53:25.030Z,-8.57
2016-03-07T09:53:39.077Z,-8.49
2016-03-07T09:53:52.936Z,-8.48
2016-03-07T09:54:06.905Z,-8.54
2016-03-07T09:54:20.705Z,-8.48
2016-03-07T09:54:37.330Z,-8.46
2016-03-07T09:54:50.908Z,-8.51
2016-03-07T09:55:04.564Z,-8.46
2016-03-07T09:55:18.332Z,-8.49
2016-03-07T09:55:32.098Z,-8.54
2016-03-07T09:55:46.223Z,-8.57
2016-03-07T09:56:17.054Z,-8.59
2016-03-07T09:56:33.819Z,-8.59
2016-03-07T09:56:50.460Z,-8.6
2016-03-07T09:57:07.319Z,-8.56
2016-03-07T09:57:21.026Z,-8.54
2016-03-07T09:57:35.104Z,-8.57
2016-03-07T09:57:48.932Z,-8.56
2016-03-07T09:58:02.526Z,-8.57
2016-03-07T09:58:16.575Z,-8.54
2016-03-07T09:58:33.200Z,-8.51
2016-03-07T09:58:47.060Z,-8.56
2016-03-07T09:59:28.687Z,-8.51
2016-03-07T09:59:42.546Z,-8.56
2016-03-07T09:59:56.671Z,-8.44
2016-03-07T10:00:13.377Z,-8.56
2016-03-07T10:00:27.299Z,-8.54
2016-03-07T10:00:41.393Z,-8.51
2016-03-07T10:00:55.487Z,-8.45
2016-03-07T10:01:09.315Z,-8.39
2016-03-07T10:01:23.193Z,-8.46
2016-03-07T10:01:36.912Z,-8.45
2016-03-07T10:01:50.724Z,-8.45
2016-03-07T10:02:05.005Z,-8.42
2016-03-07T10:02:18.679Z,-8.45
2016-03-07T10:02:32.398Z,-8.33
2016-03-07T10:02:46.039Z,-8.33
2016-03-07T10:02:59.679Z,-8.38
2016-03-07T10:03:13.462Z,-8.34
2016-03-07T10:03:27.087Z,-8.27
2016-03-07T10:03:44.134Z,-8.3
2016-03-07T10:03:58.025Z,-8.26
2016-03-07T10:04:11.900Z,-8.27
2016-03-07T10:04:25.669Z,-8.21
2016-03-07T10:04:53.684Z,-8.24
2016-03-07T10:05:07.575Z,-8.15
2016-03-07T10:05:21.390Z,-8.15
2016-03-07T10:05:35.360Z,-8.09
2016-03-07T10:05:49.126Z,-8.13
2016-03-07T10:06:17.535Z,-8.12
2016-03-07T10:06:31.113Z,-8.07
2016-03-07T10:06:44.894Z,-8.09
2016-03-07T10:07:01.738Z,-8.1
2016-03-07T10:07:18.599Z,-8.03
2016-03-07T10:07:35.287Z,-8.06
2016-03-07T10:08:03.428Z,-8.15
2016-03-07T10:08:17.493Z,-8.09
2016-03-07T10:08:34.181Z,-8.1
2016-03-07T10:08:48.009Z,-8.09
2016-03-07T10:09:01.602Z,-8.13
2016-03-07T10:09:15.184Z,-8.03
2016-03-07T10:09:29.168Z,-7.96
2016-03-07T10:09:43.543Z,-8.07
2016-03-07T10:09:57.168Z,-7.96
2016-03-07T10:10:11.277Z,-7.96
2016-03-07T10:10:25.139Z,-7.91
2016-03-07T10:10:41.904Z,-7.93
2016-03-07T10:10:58.904Z,-7.94
2016-03-07T10:11:12.548Z,-7.96
2016-03-07T10:11:26.173Z,-7.88
2016-03-07T10:11:39.876Z,-7.91
2016-03-07T10:11:53.345Z,-7.88
2016-03-07T10:12:07.001Z,-7.84
2016-03-07T10:12:23.598Z,-7.9
2016-03-07T10:12:40.395Z,-7.87
2016-03-07T10:12:55.207Z,-7.73
2016-03-07T10:13:08.957Z,-7.81
2016-03-07T10:13:25.631Z,-7.75
2016-03-07T10:13:39.350Z,-7.8
2016-03-07T10:13:53.084Z,-7.7
2016-03-07T10:14:09.865Z,-7.75
2016-03-07T10:14:23.556Z,-7.72
2016-03-07T10:14:37.197Z,-7.73
2016-03-07T10:14:54.181Z,-7.72
2016-03-07T10:15:10.665Z,-7.73
2016-03-07T10:15:24.340Z,-7.73
2016-03-07T10:15:38.325Z,-7.73
2016-03-07T10:16:06.168Z,-7.69
2016-03-07T10:16:20.437Z,-7.7
2016-03-07T10:16:34.203Z,-7.72
2016-03-07T10:16:47.765Z,-7.72
2016-03-07T10:17:01.734Z,-7.76
2016-03-07T10:17:15.440Z,-7.72
2016-03-07T10:17:29.034Z,-7.77
2016-03-07T10:17:45.690Z,-7.67
2016-03-07T10:17:59.487Z,-7.69
2016-03-07T10:18:16.365Z,-7.75
2016-03-07T10:18:30.177Z,-7.76
2016-03-07T10:18:46.709Z,-7.65
2016-03-07T10:19:03.896Z,-7.72
2016-03-07T10:19:17.524Z,-7.73
2016-03-07T10:19:31.352Z,-7.7
2016-03-07T10:19:45.008Z,-7.72
2016-03-07T10:19:58.758Z,-7.81
2016-03-07T10:20:12.465Z,-7.7
2016-03-07T10:20:26.090Z,-7.7
2016-03-07T10:20:39.840Z,-7.87
2016-03-07T10:20:53.433Z,-7.84
2016-03-07T10:21:07.527Z,-7.77
2016-03-07T10:21:21.607Z,-7.81
2016-03-07T10:21:35.263Z,-7.83
2016-03-07T10:21:52.357Z,-7.81
2016-03-07T10:22:06.295Z,-7.81
2016-03-07T10:22:20.251Z,-7.86
2016-03-07T10:22:37.204Z,-7.9
2016-03-07T10:22:50.860Z,-7.86
2016-03-07T10:23:04.704Z,-7.9
2016-03-07T10:23:18.159Z,-7.93
2016-03-07T10:23:31.862Z,-7.93
2016-03-07T10:23:45.706Z,-7.96
2016-03-07T10:24:13.569Z,-7.99
2016-03-07T10:24:27.147Z,-8.05
2016-03-07T10:24:54.757Z,-7.99
2016-03-07T10:25:08.413Z,-8.02
2016-03-07T10:25:24.696Z,-8.07
2016-03-07T10:25:38.603Z,-8.09
2016-03-07T10:26:06.196Z,-8.13
2016-03-07T10:26:19.840Z,-8.07
2016-03-07T10:26:33.621Z,-8.13
2016-03-07T10:26:50.340Z,-8.13
2016-03-07T10:27:04.152Z,-8.16
2016-03-07T10:27:17.623Z,-8.06
2016-03-07T10:27:31.092Z,-8.2
2016-03-07T10:27:44.779Z,-8.23
2016-03-07T10:27:58.529Z,-8.28
2016-03-07T10:28:12.532Z,-8.26
2016-03-07T10:28:26.517Z,-8.21
2016-03-07T10:28:43.642Z,-8.3
2016-03-07T10:28:57.454Z,-8.18
2016-03-07T10:29:11.189Z,-8.3
2016-03-07T10:29:24.535Z,-8.26
2016-03-07T10:29:38.473Z,-8.33
2016-03-07T10:29:52.270Z,-8.31
2016-03-07T10:30:05.910Z,-8.21
2016-03-07T10:30:19.163Z,-8.34
2016-03-07T10:30:32.835Z,-8.33
2016-03-07T10:30:46.960Z,-8.28
2016-03-07T10:31:00.679Z,-8.33
2016-03-07T10:31:14.759Z,-8.33
2016-03-07T10:31:29.009Z,-8.3
2016-03-07T10:31:42.837Z,-8.34
2016-03-07T10:31:56.853Z,-8.33
2016-03-07T10:32:10.056Z,-8.36
2016-03-07T10:32:23.762Z,-8.34
2016-03-07T10:32:37.793Z,-8.42
2016-03-07T10:32:51.653Z,-8.39
2016-03-07T10:33:08.278Z,-8.38
2016-03-07T10:33:22.078Z,-8.45
2016-03-07T10:33:35.875Z,-8.46
2016-03-07T10:33:49.875Z,-8.41
2016-03-07T10:34:03.500Z,-8.46
2016-03-07T10:34:17.111Z,-8.44
2016-03-07T10:34:30.595Z,-8.48
2016-03-07T10:34:44.142Z,-8.48
2016-03-07T10:34:57.736Z,-8.48
2016-03-07T10:35:11.736Z,-8.46
2016-03-07T10:35:26.301Z,-8.52
2016-03-07T10:35:40.114Z,-8.45
2016-03-07T10:35:54.020Z,-8.51
2016-03-07T10:36:07.864Z,-8.48
2016-03-07T10:36:21.882Z,-8.49
2016-03-07T10:36:35.569Z,-8.51
2016-03-07T10:36:49.382Z,-8.56
2016-03-07T10:37:03.319Z,-8.51
2016-03-07T10:37:17.181Z,-8.63
2016-03-07T10:37:33.963Z,-8.63
2016-03-07T10:38:01.744Z,-8.67
2016-03-07T10:38:15.481Z,-8.6
2016-03-07T10:38:29.263Z,-8.63
2016-03-07T10:38:45.934Z,-8.66
2016-03-07T10:38:59.809Z,-8.65
2016-03-07T10:39:19.750Z,-8.7
2016-03-07T10:39:33.547Z,-8.67
2016-03-07T10:39:47.328Z,-8.67
2016-03-07T10:40:15.533Z,-8.67
2016-03-07T10:40:28.658Z,-8.69
2016-03-07T10:40:42.502Z,-8.66
2016-03-07T10:40:56.283Z,-8.6
2016-03-07T10:41:10.143Z,-8.65
2016-03-07T10:41:23.739Z,-8.66
2016-03-07T10:41:37.661Z,-8.69
2016-03-07T10:41:51.567Z,-8.63
2016-03-07T10:42:05.286Z,-8.67
2016-03-07T10:42:19.399Z,-8.67
2016-03-07T10:42:33.305Z,-8.62
2016-03-07T10:42:46.914Z,-8.66
2016-03-07T10:43:00.633Z,-8.65
2016-03-07T10:43:14.463Z,-8.65
2016-03-07T10:43:28.541Z,-8.65
2016-03-07T10:43:42.432Z,-8.69
2016-03-07T10:43:55.994Z,-8.74
2016-03-07T10:44:09.776Z,-8.67
2016-03-07T10:44:36.857Z,-8.62
2016-03-07T10:44:50.700Z,-8.67
2016-03-07T10:45:04.575Z,-8.69
2016-03-07T10:45:21.328Z,-8.67
2016-03-07T10:45:49.125Z,-8.7
2016-03-07T10:46:03.000Z,-8.66
2016-03-07T10:46:19.878Z,-8.62
2016-03-07T10:46:33.363Z,-8.69
2016-03-07T10:46:47.144Z,-8.7
2016-03-07T10:47:00.941Z,-8.76
2016-03-07T10:47:14.802Z,-8.69
2016-03-07T10:47:28.505Z,-8.7
2016-03-07T10:47:42.333Z,-8.74
2016-03-07T10:47:55.974Z,-8.62
2016-03-07T10:48:13.086Z,-8.63
2016-03-07T10:48:27.040Z,-8.7
2016-03-07T10:48:40.618Z,-8.67
2016-03-07T10:48:54.602Z,-8.66
2016-03-07T10:49:08.571Z,-8.72
2016-03-07T10:49:22.277Z,-8.74
2016-03-07T10:49:35.980Z,-8.77
2016-03-07T10:49:49.714Z,-8.7
2016-03-07T10:50:03.496Z,-8.74
2016-03-07T10:50:17.216Z,-8.72
2016-03-07T10:50:30.701Z,-8.72
2016-03-07T10:50:44.716Z,-8.74
2016-03-07T10:50:58.341Z,-8.7
2016-03-07T10:51:11.982Z,-8.77
2016-03-07T10:51:25.641Z,-8.7
2016-03-07T10:51:42.469Z,-8.69
2016-03-07T10:51:58.266Z,-8.69
2016-03-07T10:52:14.957Z,-8.7
2016-03-07T10:52:29.176Z,-8.7
2016-03-07T10:52:42.910Z,-8.77
2016-03-07T10:52:56.551Z,-8.65
2016-03-07T10:53:10.238Z,-8.77
2016-03-07T10:53:23.771Z,-8.66
2016-03-07T10:53:37.271Z,-8.7
2016-03-07T10:53:51.115Z,-8.74
2016-03-07T10:54:04.865Z,-8.66
2016-03-07T10:54:18.774Z,-8.67
2016-03-07T10:54:32.368Z,-8.7
2016-03-07T10:54:46.071Z,-8.66
2016-03-07T10:54:59.868Z,-8.7
2016-03-07T10:55:13.479Z,-8.69
2016-03-07T10:55:27.448Z,-8.7
2016-03-07T10:55:41.401Z,-8.72
2016-03-07T10:55:55.276Z,-8.57
2016-03-07T10:56:09.448Z,-8.66
2016-03-07T10:56:23.218Z,-8.65
2016-03-07T10:56:36.812Z,-8.66
2016-03-07T10:56:50.358Z,-8.6
2016-03-07T10:57:04.390Z,-8.62
2016-03-07T10:57:18.064Z,-8.59
2016-03-07T10:57:31.704Z,-8.62
2016-03-07T10:57:59.548Z,-8.63
2016-03-07T10:58:13.348Z,-8.59
2016-03-07T10:58:26.910Z,-8.57
2016-03-07T10:58:41.613Z,-8.49
2016-03-07T10:58:55.457Z,-8.51
2016-03-07T10:59:09.082Z,-8.46
2016-03-07T10:59:22.772Z,-8.52
2016-03-07T10:59:36.304Z,-8.51
2016-03-07T10:59:50.385Z,-8.45
2016-03-07T11:00:04.916Z,-8.41
2016-03-07T11:00:18.628Z,-8.46
2016-03-07T11:00:32.418Z,-8.39
2016-03-07T11:00:47.642Z,-8.28
2016-03-07T11:01:01.517Z,-8.34
2016-03-07T11:01:14.864Z,-8.31
2016-03-07T11:01:28.504Z,-8.34
2016-03-07T11:01:42.645Z,-8.24
2016-03-07T11:01:56.395Z,-8.23
2016-03-07T11:02:10.301Z,-8.28
2016-03-07T11:02:23.991Z,-8.21
2016-03-07T11:02:40.361Z,-8.2
2016-03-07T11:02:57.712Z,-8.16
2016-03-07T11:03:17.947Z,-8.2
2016-03-07T11:03:34.197Z,-8.15
2016-03-07T11:03:52.650Z,-8.15
2016-03-07T11:04:06.353Z,-8.15
2016-03-07T11:04:20.058Z,-8.13
2016-03-07T11:04:34.089Z,-8.15
2016-03-07T11:04:47.761Z,-8.12
2016-03-07T11:05:04.652Z,-8.13
2016-03-07T11:05:18.217Z,-8.12
2016-03-07T11:05:34.889Z,-8.15
2016-03-07T11:06:02.796Z,-8.13
2016-03-07T11:06:16.829Z,-8.09
2016-03-07T11:06:33.360Z,-8.13
2016-03-07T11:06:46.610Z,-8.1
2016-03-07T11:07:00.360Z,-8.02
2016-03-07T11:07:14.048Z,-8.06
2016-03-07T11:07:27.957Z,-8.03
2016-03-07T11:07:41.754Z,-7.96
2016-03-07T11:07:55.582Z,-7.98
2016-03-07T11:08:09.644Z,-8.02
2016-03-07T11:08:40.522Z,-7.91
2016-03-07T11:08:54.085Z,-7.94
2016-03-07T11:09:08.054Z,-7.93
2016-03-07T11:09:21.885Z,-7.99
2016-03-07T11:09:35.635Z,-8.02
2016-03-07T11:09:49.385Z,-7.88
2016-03-07T11:10:03.182Z,-7.84
2016-03-07T11:10:17.103Z,-7.8
2016-03-07T11:10:30.763Z,-7.77
2016-03-07T11:10:47.685Z,-7.77
2016-03-07T11:11:01.247Z,-7.86
2016-03-07T11:11:18.249Z,-7.83
2016-03-07T11:11:32.390Z,-7.81
2016-03-07T11:11:49.140Z,-7.77
2016-03-07T11:12:03.280Z,-7.69
2016-03-07T11:12:16.858Z,-7.7
2016-03-07T11:12:33.518Z,-7.76
2016-03-07T11:12:47.096Z,-7.66
2016-03-07T11:13:01.268Z,-7.73
2016-03-07T11:13:15.190Z,-7.63
2016-03-07T11:13:28.818Z,-7.67
2016-03-07T11:13:42.583Z,-7.73
2016-03-07T11:13:56.208Z,-7.72
2016-03-07T11:14:10.349Z,-7.66
2016-03-07T11:14:30.023Z,-7.66
2016-03-07T11:14:43.788Z,-7.63
2016-03-07T11:15:12.445Z,-7.66
2016-03-07T11:15:25.868Z,-7.55
2016-03-07T11:15:39.634Z,-7.62
2016-03-07T11:15:53.790Z,-7.59
2016-03-07T11:16:10.400Z,-7.55
2016-03-07T11:16:24.200Z,-7.52
2016-03-07T11:16:41.387Z,-7.49
2016-03-07T11:16:55.137Z,-7.48
2016-03-07T11:17:08.731Z,-7.49
2016-03-07T11:17:22.390Z,-7.44
2016-03-07T11:17:36.453Z,-7.49
2016-03-07T11:17:53.328Z,-7.49
2016-03-07T11:18:07.015Z,-7.44
2016-03-07T11:18:20.846Z,-7.42
2016-03-07T11:18:34.721Z,-7.34
2016-03-07T11:18:48.502Z,-7.3
2016-03-07T11:19:02.877Z,-7.3
2016-03-07T11:19:16.534Z,-7.33
2016-03-07T11:19:30.223Z,-7.26
2016-03-07T11:19:43.911Z,-7.17
2016-03-07T11:19:57.629Z,-7.24
2016-03-07T11:20:14.442Z,-7.17
2016-03-07T11:20:31.179Z,-7.17
2016-03-07T11:20:44.804Z,-7.13
2016-03-07T11:20:59.007Z,-7.17
2016-03-07T11:21:12.898Z,-7.05
2016-03-07T11:21:26.604Z,-7.17
2016-03-07T11:21:40.245Z,-7.13
2016-03-07T11:21:56.901Z,-7.09
2016-03-07T11:22:10.901Z,-7.07
2016-03-07T11:22:24.856Z,-7.09
2016-03-07T11:22:38.966Z,-7.1
2016-03-07T11:22:52.544Z,-7.06
2016-03-07T11:23:09.669Z,-7.1
2016-03-07T11:23:23.313Z,-7.07
2016-03-07T11:23:40.251Z,-7.09
2016-03-07T11:24:07.985Z,-7.09
2016-03-07T11:24:21.690Z,-7.02
2016-03-07T11:24:36.190Z,-7.06
2016-03-07T11:24:49.925Z,-7.06
2016-03-07T11:25:07.050Z,-7.01
2016-03-07T11:25:20.599Z,-7.12
2016-03-07T11:25:34.552Z,-7.01
2016-03-07T11:25:51.270Z,-7.02
2016-03-07T11:26:05.114Z,-6.95
2016-03-07T11:26:19.180Z,-7.01
2016-03-07T11:26:32.742Z,-6.99
2016-03-07T11:26:46.539Z,-6.98
2016-03-07T11:27:14.398Z,-6.97
2016-03-07T11:27:28.386Z,-6.94
2016-03-07T11:27:42.183Z,-6.95
2016-03-07T11:27:56.105Z,-6.94
2016-03-07T11:28:09.776Z,-6.94
2016-03-07T11:28:23.310Z,-6.95
2016-03-07T11:28:36.888Z,-6.91
2016-03-07T11:28:54.153Z,-6.91
2016-03-07T11:29:08.138Z,-6.89
2016-03-07T11:29:22.344Z,-6.91
2016-03-07T11:29:36.094Z,-6.95
2016-03-07T11:29:49.938Z,-6.89
2016-03-07T11:30:03.781Z,-6.91
2016-03-07T11:30:17.297Z,-6.84
2016-03-07T11:30:31.034Z,-6.92
2016-03-07T11:30:44.691Z,-6.87
2016-03-07T11:30:58.628Z,-6.89
2016-03-07T11:31:12.628Z,-6.87
2016-03-07T11:31:29.194Z,-6.81
2016-03-07T11:31:46.350Z,-6.89
2016-03-07T11:32:00.256Z,-6.84
2016-03-07T11:32:14.225Z,-6.81
2016-03-07T11:32:28.352Z,-6.83
2016-03-07T11:32:42.352Z,-6.84
2016-03-07T11:32:56.071Z,-6.78
2016-03-07T11:33:09.711Z,-6.78
2016-03-07T11:33:23.480Z,-6.84
2016-03-07T11:33:37.246Z,-6.88
2016-03-07T11:33:50.839Z,-6.89
2016-03-07T11:34:07.933Z,-6.78
2016-03-07T11:34:24.983Z,-6.7
2016-03-07T11:34:38.795Z,-6.77
2016-03-07T11:34:52.624Z,-6.73
2016-03-07T11:35:09.436Z,-6.73
2016-03-07T11:35:22.985Z,-6.68
2016-03-07T11:35:36.657Z,-6.71
2016-03-07T11:35:51.235Z,-6.62
2016-03-07T11:36:05.188Z,-6.65
2016-03-07T11:36:21.863Z,-6.7
2016-03-07T11:36:38.675Z,-6.7
2016-03-07T11:36:52.488Z,-6.68
2016-03-07T11:37:06.425Z,-6.7
2016-03-07T11:37:20.069Z,-6.71
2016-03-07T11:37:33.647Z,-6.62
2016-03-07T11:37:47.272Z,-6.67
2016-03-07T11:38:04.100Z,-6.65
2016-03-07T11:38:17.866Z,-6.67
2016-03-07T11:38:31.556Z,-6.71
2016-03-07T11:38:45.681Z,-6.77
2016-03-07T11:38:59.619Z,-6.68
2016-03-07T11:39:13.572Z,-6.81
2016-03-07T11:39:27.246Z,-6.68
2016-03-07T11:39:40.933Z,-6.77
2016-03-07T11:39:54.793Z,-6.77
2016-03-07T11:40:08.637Z,-6.76
2016-03-07T11:40:22.779Z,-6.83
2016-03-07T11:40:36.748Z,-6.71
2016-03-07T11:40:50.576Z,-6.76
2016-03-07T11:41:04.264Z,-6.78
2016-03-07T11:41:18.029Z,-6.8
2016-03-07T11:41:31.783Z,-6.71
2016-03-07T11:41:45.408Z,-6.76
2016-03-07T11:42:13.471Z,-6.73
2016-03-07T11:42:41.363Z,-6.76
2016-03-07T11:42:58.285Z,-6.78
2016-03-07T11:43:21.007Z,-6.68
2016-03-07T11:43:34.632Z,-6.76
2016-03-07T11:43:48.351Z,-6.68
2016-03-07T11:44:02.226Z,-6.7
2016-03-07T11:44:15.788Z,-6.76
2016-03-07T11:44:32.853Z,-6.73
2016-03-07T11:44:46.634Z,-6.71
2016-03-07T11:44:59.493Z,-6.7
2016-03-07T11:45:13.212Z,-6.76
2016-03-07T11:45:27.200Z,-6.68
2016-03-07T11:45:40.794Z,-6.74
2016-03-07T11:45:54.482Z,-6.74
2016-03-07T11:46:22.781Z,-6.74
2016-03-07T11:46:36.421Z,-6.89
2016-03-07T11:46:50.171Z,-6.84
2016-03-07T11:47:18.156Z,-6.83
2016-03-07T11:47:32.001Z,-6.83
2016-03-07T11:48:13.829Z,-6.87
2016-03-07T11:48:27.833Z,-6.8
2016-03-07T11:48:41.505Z,-6.84
2016-03-07T11:48:55.193Z,-6.83
2016-03-07T11:49:08.771Z,-6.77
2016-03-07T11:49:25.757Z,-6.8
2016-03-07T11:49:39.398Z,-6.78
2016-03-07T11:49:53.210Z,-6.74
2016-03-07T11:50:10.195Z,-6.73
2016-03-07T11:50:24.306Z,-6.7
2016-03-07T11:50:38.525Z,-6.62
2016-03-07T11:50:52.228Z,-6.59
2016-03-07T11:51:06.291Z,-6.65
2016-03-07T11:51:19.826Z,-6.55
2016-03-07T11:51:33.920Z,-6.67
2016-03-07T11:51:47.498Z,-6.52
2016-03-07T11:52:01.170Z,-6.59
2016-03-07T11:52:15.685Z,-6.52
2016-03-07T11:52:32.954Z,-6.43
2016-03-07T11:52:47.001Z,-6.44
2016-03-07T11:53:00.891Z,-6.37
2016-03-07T11:53:14.626Z,-6.4
2016-03-07T11:53:31.300Z,-6.43
2016-03-07T11:53:43.784Z,-6.44
2016-03-07T11:53:57.300Z,-6.37
2016-03-07T11:54:10.862Z,-6.34
2016-03-07T11:54:24.598Z,-6.38
2016-03-07T11:54:38.286Z,-6.33
2016-03-07T11:54:51.989Z,-6.38
2016-03-07T11:55:06.442Z,-6.34
2016-03-07T11:55:20.445Z,-6.36
2016-03-07T11:55:48.601Z,-6.34
2016-03-07T11:56:02.101Z,-6.31
2016-03-07T11:56:16.195Z,-6.38
2016-03-07T11:56:29.886Z,-6.36
2016-03-07T11:56:43.776Z,-6.23
2016-03-07T11:56:57.604Z,-6.25
2016-03-07T11:57:11.511Z,-6.22
2016-03-07T11:57:39.591Z,-6.18
2016-03-07T11:57:53.169Z,-6.15
2016-03-07T11:58:06.935Z,-6.19
2016-03-07T11:58:20.547Z,-6.16
2016-03-07T11:58:34.281Z,-6.1
2016-03-07T11:58:48.031Z,-6.07
2016-03-07T11:59:01.672Z,-6.07
2016-03-07T11:59:15.484Z,-6.07
2016-03-07T11:59:32.441Z,-6.07
2016-03-07T11:59:46.269Z,-6.04
2016-03-07T12:00:00.081Z,-6.01
2016-03-07T12:00:13.722Z,-5.98
2016-03-07T12:00:27.428Z,-5.97
2016-03-07T12:00:41.069Z,-5.84